Peyton, Colorado
Current Conditions -  °F | °C
As of 4:33 PM on Saturday 25 Oct 2014 (Local Time) from KFLY Reporting Station
Clear Clear  
Wind Chill: 73°   Ceiling: Unl
Heat Index: 73°   Visibility: 10mi
Dew Point: 19°   Wind: 13mph
Humidity: 13%   Direction: 170°S
Pressure: 30.21"   Gusts: NA
Location:  39.03°N, 104.48°W
Report Text: KFLY 252233Z AUTO 17011KT 10SM CLR 23/M07 A3021 RMK AO2 T02301073
Loading
Personal Weather Stations






























Interactive Weather Map
Tropical Storm Tracking
New forecast layout! Learn more

10-Day Weather Forecast

Advertisements
Track Severe Weather on mobile